Time;durP1;ratioP1;P1;durP2;ratioP2;P2;SDS_P1;SDS_P2;PMS_P1;PMS_P2;Temp;Humidity;BMP_temperature;BMP_pressure;BME280_temperature;BME280_humidity;BME280_pressure;Samples;Min_cycle;Max_cycle;Signal;HPM_P1;HPM_P2
2023/11/28 00:01:17;;;;;;;6.10;4.60;;;;;;;-147.86;100.00;48568.97;105796;1258;60989;-41
2023/11/28 00:03:44;;;;;;;9.90;6.10;;;;;;;-147.86;100.00;48568.97;105782;1254;60447;-42
2023/11/28 00:06:18;;;;;;;8.50;5.60;;;;;;;-147.86;100.00;48556.42;105806;1254;72333;-41
2023/11/28 00:08:46;;;;;;;9.50;5.50;;;;;;;-147.86;100.00;48539.95;105828;1257;64467;-42
2023/11/28 00:11:20;;;;;;;11.20;5.30;;;;;;;-147.86;100.00;48532.11;105786;1254;72639;-42
2023/11/28 00:13:48;;;;;;;8.50;5.70;;;;;;;-147.86;100.00;48518.00;105774;1257;61815;-42
2023/11/28 00:16:16;;;;;;;9.70;5.60;;;;;;;-147.86;100.00;48501.92;105837;1257;60342;-42
2023/11/28 00:18:43;;;;;;;8.70;4.80;;;;;;;-147.86;100.00;48479.96;105854;1253;73732;-42
2023/11/28 00:21:11;;;;;;;10.60;5.70;;;;;;;-147.86;100.00;48479.18;105791;1257;65490;-41
2023/11/28 00:23:38;;;;;;;7.40;5.00;;;;;;;-147.86;100.00;48466.24;105802;1254;72535;-42
2023/11/28 00:26:05;;;;;;;7.70;5.40;;;;;;;-147.86;100.00;48445.06;105767;1259;62428;-41
2023/11/28 00:28:33;;;;;;;6.60;4.80;;;;;;;-147.86;100.00;48438.79;105796;1254;60527;-41
2023/11/28 00:31:00;;;;;;;6.50;5.10;;;;;;;-147.86;100.00;48438.79;105754;1255;73870;-42
2023/11/28 00:33:27;;;;;;;7.10;5.10;;;;;;;-147.86;100.00;48429.77;105822;1254;64679;-42
2023/11/28 00:35:54;;;;;;;9.00;5.40;;;;;;;-147.86;100.00;48439.97;105642;1254;72662;-42
2023/11/28 00:38:21;;;;;;;8.20;5.60;;;;;;;-147.86;100.00;48437.22;105787;1257;61934;-41
2023/11/28 00:40:49;;;;;;;7.50;4.80;;;;;;;-147.86;100.00;48435.65;105806;1254;61141;-42
2023/11/28 00:43:16;;;;;;;6.90;5.00;;;;;;;-147.86;100.00;48443.89;105931;1257;73792;-42
2023/11/28 00:45:43;;;;;;;8.00;5.50;;;;;;;-147.86;100.00;48417.62;105658;1258;65211;-42
2023/11/28 00:48:11;;;;;;;8.80;5.50;;;;;;;-147.86;100.00;48420.75;105792;1254;72624;-44
2023/11/28 00:50:38;;;;;;;8.90;5.80;;;;;;;-147.86;100.00;48427.03;105692;1257;61887;-43
2023/11/28 00:53:05;;;;;;;6.70;4.60;;;;;;;-147.86;100.00;48419.19;105561;1254;60466;-43
2023/11/28 00:55:31;;;;;;;7.20;5.00;;;;;;;-147.86;100.00;48402.72;105657;1259;73858;-43
2023/11/28 00:57:59;;;;;;;9.20;5.60;;;;;;;-147.86;100.00;48408.21;105746;1258;65414;-43
2023/11/28 01:00:26;;;;;;;9.30;5.90;;;;;;;-147.86;100.00;48415.27;105801;1254;72560;-41
2023/11/28 01:02:53;;;;;;;9.30;5.50;;;;;;;-147.86;100.00;48408.21;105812;1258;60377;-43
2023/11/28 01:05:21;;;;;;;9.00;5.20;;;;;;;-147.86;100.00;48411.34;105848;1254;60536;-45
2023/11/28 01:07:48;;;;;;;10.80;5.50;;;;;;;-147.86;100.00;48414.48;105694;1258;72941;-44
2023/11/28 01:10:15;;;;;;;7.30;5.30;;;;;;;-147.86;100.00;48415.66;105828;1254;65459;-43
2023/11/28 01:12:43;;;;;;;7.00;5.40;;;;;;;-147.86;100.00;48415.66;105796;1258;72508;-43
2023/11/28 01:15:10;;;;;;;5.70;4.70;;;;;;;-147.86;100.00;48416.45;105827;1257;60955;-41
2023/11/28 01:17:37;;;;;;;7.10;5.00;;;;;;;-147.86;100.00;48420.36;105821;1254;60447;-41
2023/11/28 01:20:05;;;;;;;8.40;5.50;;;;;;;-147.86;100.00;48412.52;105743;1254;72328;-42
2023/11/28 01:22:33;;;;;;;8.50;5.20;;;;;;;-147.86;100.00;48411.34;105807;1254;65471;-41
2023/11/28 01:25:00;;;;;;;7.50;5.40;;;;;;;-147.86;100.00;48429.77;105865;1257;72505;-41
2023/11/28 01:27:27;;;;;;;8.50;5.50;;;;;;;-147.86;100.00;48432.52;105798;1257;61081;-41
2023/11/28 01:29:54;;;;;;;7.30;5.30;;;;;;;-147.86;100.00;48441.14;105810;1253;60472;-41
2023/11/28 01:32:21;;;;;;;7.90;5.10;;;;;;;-147.86;100.00;48425.07;105683;1252;73690;-42
2023/11/28 01:34:48;;;;;;;8.20;4.80;;;;;;;-147.86;100.00;48460.75;105702;1254;65497;-42
2023/11/28 01:37:18;;;;;;;8.50;5.90;;;;;;;-147.86;100.00;48451.34;105801;1254;72811;-42
2023/11/28 01:39:44;;;;;;;11.40;5.80;;;;;;;-147.86;100.00;48450.16;105680;1257;60770;-41
2023/11/28 01:42:12;;;;;;;9.70;5.50;;;;;;;-147.86;100.00;48466.63;105696;1254;60453;-42
2023/11/28 01:44:39;;;;;;;10.80;5.80;;;;;;;-147.86;100.00;48460.36;105685;1259;73820;-42
2023/11/28 01:47:06;;;;;;;12.10;5.90;;;;;;;-147.86;100.00;48446.63;105826;1256;64293;-42
2023/11/28 01:49:34;;;;;;;8.10;5.10;;;;;;;-147.86;100.00;48451.34;105804;1254;72637;-42
2023/11/28 01:52:03;;;;;;;9.30;6.00;;;;;;;-147.86;100.00;48470.55;105686;1259;61695;-42
2023/11/28 01:54:31;;;;;;;7.90;5.60;;;;;;;-147.86;100.00;48467.80;105800;1254;60464;-42
2023/11/28 01:56:58;;;;;;;8.30;5.80;;;;;;;-147.86;100.00;48452.52;105823;1254;72340;-42
2023/11/28 01:59:25;;;;;;;11.30;6.30;;;;;;;-147.86;100.00;48477.61;105716;1259;65412;-41
2023/11/28 02:01:52;;;;;;;8.80;5.90;;;;;;;-147.86;100.00;48465.46;105787;1254;72530;-41
2023/11/28 02:04:19;;;;;;;8.80;6.10;;;;;;;-147.86;100.00;48473.69;105693;1262;60437;-42
2023/11/28 02:06:46;;;;;;;9.30;6.30;;;;;;;-147.86;100.00;48486.63;105810;1254;60479;-42
2023/11/28 02:09:30;;;;;;;8.50;5.80;;;;;;;-147.86;100.00;48513.29;105786;1257;73848;-41
2023/11/28 02:11:57;;;;;;;10.50;6.20;;;;;;;-147.86;100.00;48499.96;105832;1258;65335;-42
2023/11/28 02:14:24;;;;;;;8.50;5.50;;;;;;;-147.86;100.00;48515.64;105664;1254;72627;-42
2023/11/28 02:16:53;;;;;;;9.30;5.30;;;;;;;-147.86;100.00;48526.23;105662;1258;60293;-42
2023/11/28 02:19:20;;;;;;;10.40;5.90;;;;;;;-147.86;100.00;48546.23;105789;1254;60421;-42
2023/11/28 02:21:48;;;;;;;10.20;6.30;;;;;;;-147.86;100.00;48543.88;105774;1258;73546;-41
2023/11/28 02:24:15;;;;;;;11.30;6.20;;;;;;;-147.86;100.00;48557.21;105847;1258;65429;-42
2023/11/28 02:26:42;;;;;;;11.90;6.50;;;;;;;-147.86;100.00;48563.87;105709;1254;72734;-42
2023/11/28 02:29:09;;;;;;;9.30;6.20;;;;;;;-147.86;100.00;48595.63;105845;1259;60404;-41
2023/11/28 02:31:36;;;;;;;8.80;6.10;;;;;;;-147.86;100.00;48579.16;105831;1254;61997;-42
2023/11/28 02:34:03;;;;;;;13.20;6.10;;;;;;;-147.86;100.00;48576.03;105696;1258;73702;-41
2023/11/28 02:36:30;;;;;;;10.20;6.50;;;;;;;-147.86;100.00;48596.81;105806;1257;65435;-42
2023/11/28 02:38:57;;;;;;;11.30;5.80;;;;;;;-147.86;100.00;48599.55;105667;1254;72691;-42
2023/11/28 02:41:24;;;;;;;10.20;6.00;;;;;;;-147.86;100.00;48610.54;105866;1258;60349;-42
2023/11/28 02:43:51;;;;;;;12.20;6.30;;;;;;;-147.86;100.00;48623.47;105820;1253;61633;-42
2023/11/28 02:46:18;;;;;;;8.80;5.70;;;;;;;-147.86;100.00;48650.53;105807;1258;73868;-42
2023/11/28 02:48:46;;;;;;;9.60;5.90;;;;;;;-147.86;100.00;48645.04;105665;1254;65501;-42
2023/11/28 02:51:16;;;;;;;8.60;5.50;;;;;;;-147.86;100.00;48661.90;105689;1254;73239;-42
2023/11/28 02:53:43;;;;;;;9.20;5.70;;;;;;;-147.86;100.00;48669.74;105691;1259;60401;-42
2023/11/28 02:56:11;;;;;;;9.30;5.90;;;;;;;-147.86;100.00;48680.73;105850;1254;60542;-42
2023/11/28 02:58:39;;;;;;;13.00;6.10;;;;;;;-147.86;100.00;48679.16;105850;1255;72650;-42
2023/11/28 03:01:06;;;;;;;14.60;6.10;;;;;;;-147.86;100.00;48668.18;105859;1258;65562;-41
2023/11/28 03:03:33;;;;;;;9.30;5.50;;;;;;;-147.86;100.00;48663.47;105859;1254;72499;-42
2023/11/28 03:06:00;;;;;;;10.10;6.00;;;;;;;-147.86;100.00;48657.20;105728;1259;60526;-42
2023/11/28 03:08:28;;;;;;;9.50;5.80;;;;;;;-147.86;100.00;48636.02;105829;1254;60815;-42
2023/11/28 03:10:55;;;;;;;7.70;5.60;;;;;;;-147.86;100.00;48626.22;105787;1255;73807;-42
2023/11/28 03:13:22;;;;;;;15.40;5.50;;;;;;;-147.86;100.00;48627.00;105847;1258;65372;-42
2023/11/28 03:15:48;;;;;;;10.80;6.10;;;;;;;-147.86;100.00;48645.04;105856;1254;72784;-41
2023/11/28 03:18:15;;;;;;;9.40;5.50;;;;;;;-147.86;100.00;48629.75;105709;1258;60400;-42
2023/11/28 03:20:42;;;;;;;8.70;5.60;;;;;;;-147.86;100.00;48620.73;105878;1254;60460;-42
2023/11/28 03:23:10;;;;;;;10.10;5.70;;;;;;;-147.86;100.00;48624.26;105861;1256;73668;-42
2023/11/28 03:25:37;;;;;;;8.20;6.10;;;;;;;-147.86;100.00;48616.02;105853;1258;65687;-43
2023/11/28 03:28:04;;;;;;;8.70;5.60;;;;;;;-147.86;100.00;48610.53;105818;1254;72556;-42
2023/11/28 03:30:31;;;;;;;14.30;5.80;;;;;;;-147.86;100.00;48607.01;105851;1257;60319;-42
2023/11/28 03:32:58;;;;;;;8.10;5.60;;;;;;;-147.86;100.00;48625.04;105865;1254;60432;-42
2023/11/28 03:35:28;;;;;;;11.30;5.70;;;;;;;-147.86;100.00;48625.04;105849;1253;73956;-42
2023/11/28 03:37:57;;;;;;;9.40;5.80;;;;;;;-147.86;100.00;48609.36;105959;1257;65559;-42
2023/11/28 03:40:24;;;;;;;14.50;5.70;;;;;;;-147.86;100.00;48616.41;105807;1259;72677;-42
2023/11/28 03:42:52;;;;;;;11.50;5.10;;;;;;;-147.86;100.00;48639.94;105835;1257;61085;-42
2023/11/28 03:45:19;;;;;;;9.00;5.00;;;;;;;-147.86;100.00;48625.43;105831;1254;60522;-42
2023/11/28 03:47:46;;;;;;;7.50;5.50;;;;;;;-147.86;100.00;48628.96;105880;1259;73035;-42
2023/11/28 03:50:13;;;;;;;7.20;5.10;;;;;;;-147.86;100.00;48617.59;105812;1258;65510;-42
2023/11/28 03:52:42;;;;;;;6.10;4.70;;;;;;;-147.86;100.00;48626.61;105835;1257;72507;-42
2023/11/28 03:55:10;;;;;;;6.60;4.70;;;;;;;-147.86;100.00;48627.39;105845;1257;61136;-42
2023/11/28 03:57:37;;;;;;;8.30;5.20;;;;;;;-147.86;100.00;48629.36;105705;1254;60442;-42
2023/11/28 04:00:05;;;;;;;6.00;4.60;;;;;;;-147.86;100.00;48607.01;105938;1253;73794;-43
2023/11/28 04:02:33;;;;;;;7.10;4.90;;;;;;;-147.86;100.00;48585.83;105825;1257;63922;-42
2023/11/28 04:05:04;;;;;;;14.20;5.00;;;;;;;-147.86;100.00;48611.32;105870;1254;72486;-42
2023/11/28 04:07:31;;;;;;;10.60;4.60;;;;;;;-147.86;100.00;48581.13;105813;1257;62035;-42
2023/11/28 04:09:59;;;;;;;7.30;4.70;;;;;;;-147.86;100.00;48586.62;105905;1254;60472;-42
2023/11/28 04:12:26;;;;;;;9.10;5.40;;;;;;;-147.86;100.00;48574.46;105869;1259;74127;-42
2023/11/28 04:14:53;;;;;;;8.60;4.60;;;;;;;-147.86;100.00;48573.28;105901;1257;64185;-42
2023/11/28 04:17:19;;;;;;;6.50;4.70;;;;;;;-147.86;100.00;48565.84;105608;1254;72710;-42
2023/11/28 04:19:46;;;;;;;9.50;5.10;;;;;;;-147.86;100.00;48543.09;105787;1258;60533;-42
2023/11/28 04:22:13;;;;;;;9.00;5.00;;;;;;;-147.86;100.00;48536.03;105846;1254;60649;-42
2023/11/28 04:24:41;;;;;;;6.90;4.20;;;;;;;-147.86;100.00;48539.95;105810;1254;74088;-42
2023/11/28 04:27:08;;;;;;;6.70;4.40;;;;;;;-147.86;100.00;48516.82;105860;1256;65581;-42
2023/11/28 04:29:35;;;;;;;7.50;4.60;;;;;;;-147.86;100.00;48516.04;105823;1254;71567;-42
2023/11/28 04:32:03;;;;;;;9.10;4.10;;;;;;;-147.86;100.00;48494.47;105658;1259;60503;-42
2023/11/28 04:34:31;;;;;;;5.10;4.10;;;;;;;-147.86;100.00;48469.77;105654;1259;60377;-42
2023/11/28 04:36:58;;;;;;;8.10;4.50;;;;;;;-147.86;100.00;48467.80;105823;1254;73837;-42
2023/11/28 04:39:25;;;;;;;11.90;4.40;;;;;;;-147.86;100.00;48454.48;105842;1257;65438;-42
2023/11/28 04:41:56;;;;;;;8.10;4.20;;;;;;;-147.86;100.00;48482.71;105831;1254;72051;-42
2023/11/28 04:44:23;;;;;;;6.40;4.50;;;;;;;-147.86;100.00;48459.18;105875;1256;62814;-42
2023/11/28 04:46:50;;;;;;;13.90;4.30;;;;;;;-147.86;100.00;48476.43;105643;1254;60412;-42
2023/11/28 04:49:17;;;;;;;6.50;4.40;;;;;;;-147.86;100.00;48454.48;105885;1259;71645;-42
2023/11/28 04:51:44;;;;;;;10.50;4.30;;;;;;;-147.86;100.00;48468.20;105588;1259;65946;-42
2023/11/28 04:54:11;;;;;;;6.60;4.00;;;;;;;-147.86;100.00;48456.82;105657;1254;72611;-42
2023/11/28 04:56:38;;;;;;;6.80;3.90;;;;;;;-147.86;100.00;48456.44;105675;1259;61923;-42
2023/11/28 04:59:05;;;;;;;9.70;4.80;;;;;;;-147.86;100.00;48465.46;105731;1254;60402;-42
2023/11/28 05:01:32;;;;;;;9.60;4.20;;;;;;;-147.86;100.00;48472.51;105672;1259;74021;-42
2023/11/28 05:03:59;;;;;;;7.80;4.30;;;;;;;-147.86;100.00;48476.43;105682;1259;65466;-42
2023/11/28 05:06:28;;;;;;;8.80;4.90;;;;;;;-147.86;100.00;48472.51;105844;1254;71524;-42
2023/11/28 05:08:55;;;;;;;5.90;4.30;;;;;;;-147.86;100.00;48472.51;105873;1257;61807;-42
2023/11/28 05:11:22;;;;;;;7.30;4.50;;;;;;;-147.86;100.00;48496.43;105700;1254;61031;-42
2023/11/28 05:13:49;;;;;;;5.70;4.00;;;;;;;-147.86;100.00;48470.16;105673;1255;73894;-42
2023/11/28 05:16:16;;;;;;;7.30;4.50;;;;;;;-147.86;100.00;48463.10;105627;1259;64408;-42
2023/11/28 05:18:43;;;;;;;6.70;4.60;;;;;;;-147.86;100.00;48493.29;105813;1254;72539;-42
2023/11/28 05:21:10;;;;;;;7.30;4.50;;;;;;;-147.86;100.00;48470.55;105638;1259;61614;-42
2023/11/28 05:23:42;;;;;;;6.90;4.40;;;;;;;-147.86;100.00;48496.04;105683;1255;60417;-42
2023/11/28 05:26:10;;;;;;;7.10;4.60;;;;;;;-147.86;100.00;48465.85;105827;1257;73716;-42
2023/11/28 05:28:37;;;;;;;7.60;5.30;;;;;;;-147.86;100.00;48480.75;105860;1258;65510;-42
2023/11/28 05:31:04;;;;;;;8.50;4.60;;;;;;;-147.86;100.00;48490.55;105698;1254;72633;-42
2023/11/28 05:33:31;;;;;;;6.00;4.90;;;;;;;-147.86;100.00;48492.91;105889;1257;60435;-42
2023/11/28 05:35:58;;;;;;;8.30;5.10;;;;;;;-147.86;100.00;48504.66;105653;1254;60502;-42
2023/11/28 05:38:26;;;;;;;6.70;4.40;;;;;;;-147.86;100.00;48485.84;105863;1256;73849;-42
2023/11/28 05:40:53;;;;;;;7.70;4.70;;;;;;;-147.86;100.00;48499.18;105758;1260;65423;-42
2023/11/28 05:43:21;;;;;;;7.20;4.70;;;;;;;-147.86;100.00;48505.45;105896;1254;72485;-42
2023/11/28 05:45:48;;;;;;;7.20;4.20;;;;;;;-147.86;100.00;48513.69;105838;1259;60347;-42
2023/11/28 05:48:15;;;;;;;6.00;4.30;;;;;;;-147.86;100.00;48541.52;105888;1254;60440;-41
2023/11/28 05:50:42;;;;;;;8.50;4.30;;;;;;;-147.86;100.00;48509.37;105668;1259;73639;-42
2023/11/28 05:53:09;;;;;;;8.90;4.40;;;;;;;-147.86;100.00;48517.21;105874;1257;65670;-42
2023/11/28 05:55:36;;;;;;;6.60;5.00;;;;;;;-147.86;100.00;48490.94;105704;1259;72530;-42
2023/11/28 05:58:03;;;;;;;7.00;4.70;;;;;;;-147.86;100.00;48527.01;105728;1259;60362;-42
2023/11/28 06:00:34;;;;;;;5.90;4.50;;;;;;;-147.86;100.00;48520.74;105925;1254;60533;-42
2023/11/28 06:03:01;;;;;;;7.80;4.80;;;;;;;-147.86;100.00;48534.07;105699;1254;73680;-42
2023/11/28 06:05:29;;;;;;;7.40;4.10;;;;;;;-147.86;100.00;48519.57;105755;1259;65188;-42
2023/11/28 06:07:56;;;;;;;7.40;5.00;;;;;;;-147.86;100.00;48527.02;105611;1255;72661;-42
2023/11/28 06:10:24;;;;;;;6.70;4.50;;;;;;;-147.86;100.00;48532.89;105684;1258;60527;-42
2023/11/28 06:12:56;;;;;;;6.30;4.50;;;;;;;-147.86;100.00;48521.52;105865;1260;60450;-42
2023/11/28 06:15:23;;;;;;;8.80;4.90;;;;;;;-147.86;100.00;48518.39;105867;1259;72767;-42
2023/11/28 06:17:50;;;;;;;6.50;4.70;;;;;;;-147.86;100.00;48526.23;105854;1257;65465;-42
2023/11/28 06:20:16;;;;;;;8.90;5.60;;;;;;;-147.86;100.00;48528.19;105633;1255;72502;-42
2023/11/28 06:22:45;;;;;;;7.40;4.80;;;;;;;-147.86;100.00;48509.76;105868;1259;61175;-42
2023/11/28 06:25:11;;;;;;;9.40;5.10;;;;;;;-147.86;100.00;48531.72;105869;1253;60447;-42
2023/11/28 06:27:38;;;;;;;9.20;4.50;;;;;;;-147.86;100.00;48523.09;105940;1253;73867;-42
2023/11/28 06:30:06;;;;;;;6.50;4.70;;;;;;;-147.86;100.00;48521.52;105875;1258;65545;-42
2023/11/28 06:32:33;;;;;;;9.10;5.30;;;;;;;-147.86;100.00;48505.84;105862;1260;71393;-42
2023/11/28 06:35:04;;;;;;;10.70;5.00;;;;;;;-147.86;100.00;48522.70;105648;1259;61944;-42
2023/11/28 06:37:32;;;;;;;7.50;4.40;;;;;;;-147.86;100.00;48519.96;105893;1257;61877;-42
2023/11/28 06:39:59;;;;;;;6.70;4.80;;;;;;;-147.86;100.00;48512.51;105914;1254;73871;-42
2023/11/28 06:42:26;;;;;;;6.80;5.00;;;;;;;-147.86;100.00;48512.90;105838;1257;64438;-42
2023/11/28 06:44:54;;;;;;;6.90;5.00;;;;;;;-147.86;100.00;48519.17;105905;1257;72596;-42
2023/11/28 06:47:22;;;;;;;10.20;4.90;;;;;;;-147.86;100.00;48512.51;105833;1258;60432;-42
2023/11/28 06:49:49;;;;;;;7.40;4.90;;;;;;;-147.86;100.00;48532.89;105856;1254;60540;-42
2023/11/28 06:52:16;;;;;;;8.50;5.30;;;;;;;-147.86;100.00;48512.11;105817;1256;73552;-42
2023/11/28 06:54:43;;;;;;;7.00;5.40;;;;;;;-147.86;100.00;48502.70;105842;1259;64446;-42
2023/11/28 06:57:10;;;;;;;10.80;5.30;;;;;;;-147.86;100.00;48518.77;105815;1258;72804;-42
2023/11/28 06:59:37;;;;;;;8.70;5.00;;;;;;;-147.86;100.00;48508.20;105891;1257;60405;-42
2023/11/28 07:02:04;;;;;;;9.30;5.50;;;;;;;-147.86;100.00;48516.04;105898;1257;60425;-42
2023/11/28 07:04:31;;;;;;;10.20;5.40;;;;;;;-147.86;100.00;48509.76;105582;1257;361923;-42
2023/11/28 07:10:20;;;;;;;;;;;;;;;-147.86;100.00;48513.29;102501;1294;615045;-42
2023/11/28 07:12:47;;;;;;;10.70;6.40;;;;;;;-147.86;100.00;48530.94;104763;1269;60598;-42
2023/11/28 07:15:15;;;;;;;8.80;5.60;;;;;;;-147.86;100.00;48510.15;104840;1266;60127;-42
2023/11/28 07:17:42;;;;;;;10.60;5.60;;;;;;;-147.86;100.00;48496.82;104905;1271;72041;-42
2023/11/28 07:20:11;;;;;;;11.70;6.00;;;;;;;-147.86;100.00;48490.55;104919;1270;65482;-42
2023/11/28 07:22:39;;;;;;;12.40;5.90;;;;;;;-147.86;100.00;48481.14;104758;1272;244332;-42
2023/11/28 07:25:09;;;;;;;10.10;4.90;;;;;;;-147.86;100.00;48475.26;105209;1267;60259;-42
2023/11/28 07:27:35;;;;;;;9.70;6.40;;;;;;;-147.86;100.00;48467.80;105223;1262;60167;-42
2023/11/28 07:30:03;;;;;;;10.10;5.40;;;;;;;-147.86;100.00;48485.06;105275;1263;72271;-42
2023/11/28 07:32:30;;;;;;;19.40;5.30;;;;;;;-147.86;100.00;48467.41;105265;1268;64339;-42
2023/11/28 07:34:57;;;;;;;8.70;5.20;;;;;;;-147.86;100.00;48466.24;105206;1263;72644;-42
2023/11/28 07:37:24;;;;;;;11.50;5.10;;;;;;;-147.86;100.00;48468.20;105276;1268;59614;-41
2023/11/28 07:39:51;;;;;;;8.30;5.30;;;;;;;-147.86;100.00;48459.57;105195;1265;60193;-42
2023/11/28 07:42:18;;;;;;;9.00;5.10;;;;;;;-147.86;100.00;48439.57;105219;1266;72860;-41
2023/11/28 07:44:45;;;;;;;9.10;6.10;;;;;;;-147.86;100.00;48426.24;105242;1267;64550;-41
2023/11/28 07:47:12;;;;;;;10.50;6.70;;;;;;;-147.86;100.00;48438.79;105206;1263;72638;-42
2023/11/28 07:49:43;;;;;;;19.00;10.20;;;;;;;-147.86;100.00;48433.30;105184;1267;61182;-42
2023/11/28 07:52:09;;;;;;;15.70;8.30;;;;;;;-147.86;100.00;48432.52;105267;1263;60092;-42
2023/11/28 07:54:36;;;;;;;10.10;6.40;;;;;;;-147.86;100.00;48436.83;106007;1256;73243;-42
2023/11/28 07:57:04;;;;;;;12.70;7.30;;;;;;;-147.86;100.00;48432.91;105956;1256;64544;-42
2023/11/28 07:59:30;;;;;;;10.60;6.60;;;;;;;-147.86;100.00;48418.01;105957;1251;72715;-42
2023/11/28 08:01:57;;;;;;;13.50;6.20;;;;;;;-147.86;100.00;48429.38;105957;1256;61905;-42
2023/11/28 08:04:24;;;;;;;8.20;5.40;;;;;;;-147.86;100.00;48418.40;105952;1255;61023;-42
2023/11/28 08:06:51;;;;;;;9.80;6.40;;;;;;;-147.86;100.00;48423.11;105930;1252;73136;-42
2023/11/28 08:09:18;;;;;;;8.00;5.40;;;;;;;-147.86;100.00;48410.95;105946;1256;65407;-42
2023/11/28 08:11:49;;;;;;;10.30;6.50;;;;;;;-147.86;100.00;48410.95;105947;1253;72608;-42
2023/11/28 08:14:16;;;;;;;8.90;6.00;;;;;;;-147.86;100.00;48410.95;105937;1256;59558;-42
2023/11/28 08:16:48;;;;;;;9.60;5.70;;;;;;;-147.86;100.00;48392.13;105992;1256;59606;-42
2023/11/28 08:19:16;;;;;;;12.60;5.90;;;;;;;-147.86;100.00;48393.70;105962;1255;73025;-42
2023/11/28 08:21:43;;;;;;;13.30;5.20;;;;;;;-147.86;100.00;48387.82;105893;1256;65371;-42
2023/11/28 08:24:10;;;;;;;9.80;5.70;;;;;;;-147.86;100.00;48386.65;105920;1256;72690;-42
2023/11/28 08:26:36;;;;;;;8.30;5.30;;;;;;;-147.86;100.00;48369.79;105915;1256;59775;-44
2023/11/28 08:29:04;;;;;;;12.60;6.00;;;;;;;-147.86;100.00;48391.35;105738;1256;60065;-44
2023/11/28 08:31:31;;;;;;;9.00;5.60;;;;;;;-147.86;100.00;48385.46;105626;1256;73022;-41
2023/11/28 08:33:57;;;;;;;11.00;5.60;;;;;;;-147.86;100.00;48376.84;105669;1256;65524;-41
2023/11/28 08:36:24;;;;;;;13.60;5.30;;;;;;;-147.86;100.00;48358.41;105700;1256;72470;-43
2023/11/28 08:38:51;;;;;;;11.50;5.20;;;;;;;-147.86;100.00;48366.65;105943;1256;61173;-44
2023/11/28 08:41:18;;;;;;;9.40;4.60;;;;;;;-147.86;100.00;48349.39;106083;1250;60272;-43
2023/11/28 08:43:45;;;;;;;10.40;5.80;;;;;;;-147.86;100.00;48353.71;105875;1256;73012;-43
2023/11/28 08:46:14;;;;;;;7.40;5.30;;;;;;;-147.86;100.00;48356.45;106030;1255;65367;-45
2023/11/28 08:48:42;;;;;;;9.40;5.40;;;;;;;-147.86;100.00;48356.06;105926;1254;72515;-44
2023/11/28 08:51:09;;;;;;;7.10;5.40;;;;;;;-147.86;100.00;48349.00;105916;1256;59684;-43
2023/11/28 08:53:36;;;;;;;8.40;4.80;;;;;;;-147.86;100.00;48344.30;105941;1254;60547;-41
2023/11/28 08:56:03;;;;;;;7.50;4.60;;;;;;;-147.86;100.00;48340.77;105889;1256;72972;-41
2023/11/28 08:58:30;;;;;;;6.00;4.70;;;;;;;-147.86;100.00;48335.67;105952;1256;64307;-41
2023/11/28 09:00:57;;;;;;;8.20;5.30;;;;;;;-147.86;100.00;48321.95;105870;1256;72567;-41
2023/11/28 09:03:25;;;;;;;10.40;4.70;;;;;;;-147.86;100.00;48333.32;105965;1256;59709;-41
2023/11/28 09:05:53;;;;;;;8.20;4.40;;;;;;;-147.86;100.00;48333.71;105878;1254;60324;-41
2023/11/28 09:08:20;;;;;;;9.70;5.10;;;;;;;-147.86;100.00;48330.58;105924;1255;73065;-40
2023/11/28 09:10:47;;;;;;;8.60;4.20;;;;;;;-147.86;100.00;48308.23;105929;1256;64373;-40
2023/11/28 09:13:14;;;;;;;11.40;4.30;;;;;;;-147.86;100.00;48338.02;105948;1254;72419;-41
2023/11/28 09:15:42;;;;;;;9.40;4.10;;;;;;;-147.86;100.00;48322.34;105904;1251;59751;-40
2023/11/28 09:18:09;;;;;;;7.80;3.80;;;;;;;-147.86;100.00;48319.99;105870;1256;59733;-40
2023/11/28 09:20:36;;;;;;;7.20;3.60;;;;;;;-147.86;100.00;48319.60;105918;1256;72959;-40
2023/11/28 09:23:03;;;;;;;8.30;5.20;;;;;;;-147.86;100.00;48323.13;105906;1256;65455;-39
2023/11/28 09:25:30;;;;;;;6.20;4.20;;;;;;;-147.86;100.00;48321.55;105918;1254;72611;-40
2023/11/28 09:27:58;;;;;;;8.80;5.30;;;;;;;-147.86;100.00;48314.89;105912;1264;59653;-39
2023/11/28 09:30:25;;;;;;;7.70;4.40;;;;;;;-147.86;100.00;48295.68;105931;1254;59962;-39
2023/11/28 09:32:52;;;;;;;5.60;3.90;;;;;;;-147.86;100.00;48294.11;105813;1252;73100;-40
2023/11/28 09:35:19;;;;;;;3.90;3.30;;;;;;;-147.86;100.00;48304.30;105825;1258;65512;-39
2023/11/28 09:37:51;;;;;;;4.20;3.40;;;;;;;-147.86;100.00;48315.28;105899;1257;72554;-40
2023/11/28 09:40:18;;;;;;;5.30;3.80;;;;;;;-147.86;100.00;48314.49;105991;1256;59730;-39
2023/11/28 09:42:45;;;;;;;3.20;2.60;;;;;;;-147.86;100.00;48312.14;105892;1251;60372;-39
2023/11/28 09:45:12;;;;;;;10.00;5.40;;;;;;;-147.86;100.00;48303.52;105833;1259;73464;-39
2023/11/28 09:47:39;;;;;;;5.60;3.30;;;;;;;-147.86;100.00;48321.16;105880;1256;65566;-40
2023/11/28 09:50:12;;;;;;;7.10;3.60;;;;;;;-147.86;100.00;48318.81;105747;1258;72478;-39
2023/11/28 09:52:44;;;;;;;4.80;4.30;;;;;;;-147.86;100.00;48312.54;105955;1256;59712;-39
2023/11/28 09:55:14;;;;;;;6.10;4.10;;;;;;;-147.86;100.00;48310.57;105903;1256;60480;-40
2023/11/28 09:57:43;;;;;;;3.40;3.00;;;;;;;-147.86;100.00;48328.23;105915;1256;72921;-39
2023/11/28 10:00:13;;;;;;;3.90;3.00;;;;;;;-147.86;100.00;48305.09;105981;1256;65382;-40
2023/11/28 10:02:41;;;;;;;5.20;3.10;;;;;;;-147.86;100.00;48321.55;105768;1255;72669;-39
2023/11/28 10:05:08;;;;;;;8.30;3.40;;;;;;;-147.86;100.00;48309.79;105946;1257;59745;-39
2023/11/28 10:07:35;;;;;;;3.40;2.80;;;;;;;-147.86;100.00;48327.05;105926;1257;60016;-40
2023/11/28 10:10:12;;;;;;;3.40;2.80;;;;;;;-147.86;100.00;48309.40;105704;1261;71749;-40
2023/11/28 10:12:39;;;;;;;3.50;2.80;;;;;;;-147.86;100.00;48325.48;105939;1256;65264;-39
2023/11/28 10:15:07;;;;;;;4.40;3.00;;;;;;;-147.86;100.00;48300.77;105928;1256;72713;-39
2023/11/28 10:17:37;;;;;;;4.20;3.00;;;;;;;-147.86;100.00;48317.64;105927;1256;59644;-40
2023/11/28 10:20:08;;;;;;;8.20;3.60;;;;;;;-147.86;100.00;48317.63;105946;1257;59605;-40
2023/11/28 10:22:35;;;;;;;17.00;3.70;;;;;;;-147.86;100.00;48311.75;105916;1256;72881;-40
2023/11/28 10:25:12;;;;;;;7.80;3.50;;;;;;;-147.86;100.00;48305.87;105943;1256;66352;-40
2023/11/28 10:27:43;;;;;;;8.50;3.30;;;;;;;-147.86;100.00;48317.24;105941;1256;72431;-40
2023/11/28 10:30:11;;;;;;;11.80;3.70;;;;;;;-147.86;100.00;48312.54;105860;1256;61175;-40
2023/11/28 10:32:39;;;;;;;7.30;3.30;;;;;;;-147.86;100.00;48315.29;105778;1259;60045;-40
2023/11/28 10:35:06;;;;;;;15.20;3.30;;;;;;;-147.86;100.00;48316.85;105963;1251;73441;-40
2023/11/28 10:37:39;;;;;;;13.20;4.10;;;;;;;-147.86;100.00;48319.99;105937;1257;65317;-40
2023/11/28 10:40:10;;;;;;;7.80;3.70;;;;;;;-147.86;100.00;48320.38;105899;1255;73054;-40
2023/11/28 10:42:39;;;;;;;10.50;3.70;;;;;;;-147.86;100.00;48310.97;105934;1252;59613;-40
2023/11/28 10:45:07;;;;;;;4.80;2.90;;;;;;;-147.86;100.00;48324.30;105743;1254;60195;-38
2023/11/28 10:47:35;;;;;;;16.10;3.50;;;;;;;-147.86;100.00;48338.41;105762;1254;72652;-38
2023/11/28 10:50:09;;;;;;;16.10;5.10;;;;;;;-147.86;100.00;48325.87;105799;1259;65351;-39
2023/11/28 10:52:37;;;;;;;12.60;5.30;;;;;;;-147.86;100.00;48329.79;105923;1257;72596;-39
2023/11/28 10:55:09;;;;;;;13.10;5.90;;;;;;;-147.86;100.00;48328.22;105905;1257;61961;-40
2023/11/28 10:58:03;;;;;;;14.20;4.80;;;;;;;-147.86;100.00;48336.85;105919;1257;60962;-39
2023/11/28 11:00:37;;;;;;;12.30;5.40;;;;;;;-147.86;100.00;48330.96;105942;1255;72894;-39
2023/11/28 11:03:04;;;;;;;14.20;6.30;;;;;;;-147.86;100.00;48314.11;105961;1257;65415;-40
2023/11/28 11:05:34;;;;;;;11.00;5.40;;;;;;;-147.86;100.00;48325.48;105779;1256;72706;-39